sensor_id;sensor_type;location;lat;lon;timestamp;P1;durP1;ratioP1;P2;durP2;ratioP2
37199;SDS011;23096;50.892;16.746;2023-07-09T00:02:21;4.30;;;2.20;;
37199;SDS011;23096;50.892;16.746;2023-07-09T00:04:48;2.00;;;1.80;;
37199;SDS011;23096;50.892;16.746;2023-07-09T00:07:16;3.90;;;2.10;;
37199;SDS011;23096;50.892;16.746;2023-07-09T00:09:46;2.80;;;2.50;;
37199;SDS011;23096;50.892;16.746;2023-07-09T00:12:16;5.00;;;1.80;;
37199;SDS011;23096;50.892;16.746;2023-07-09T00:14:43;2.70;;;2.10;;
37199;SDS011;23096;50.892;16.746;2023-07-09T00:17:28;3.50;;;2.40;;
37199;SDS011;23096;50.892;16.746;2023-07-09T00:19:59;4.80;;;2.50;;
37199;SDS011;23096;50.892;16.746;2023-07-09T00:22:25;4.20;;;3.20;;
37199;SDS011;23096;50.892;16.746;2023-07-09T00:24:53;3.50;;;2.60;;
37199;SDS011;23096;50.892;16.746;2023-07-09T00:27:23;3.20;;;2.30;;
37199;SDS011;23096;50.892;16.746;2023-07-09T00:29:52;3.20;;;2.40;;
37199;SDS011;23096;50.892;16.746;2023-07-09T00:32:19;3.20;;;2.20;;
37199;SDS011;23096;50.892;16.746;2023-07-09T00:34:46;3.70;;;2.80;;
37199;SDS011;23096;50.892;16.746;2023-07-09T00:37:17;2.60;;;2.20;;
37199;SDS011;23096;50.892;16.746;2023-07-09T00:39:46;4.90;;;2.50;;
37199;SDS011;23096;50.892;16.746;2023-07-09T00:42:13;7.30;;;2.60;;
37199;SDS011;23096;50.892;16.746;2023-07-09T00:44:44;2.90;;;2.20;;
37199;SDS011;23096;50.892;16.746;2023-07-09T00:47:21;5.50;;;2.50;;
37199;SDS011;23096;50.892;16.746;2023-07-09T00:50:03;3.00;;;2.20;;
37199;SDS011;23096;50.892;16.746;2023-07-09T00:52:43;4.00;;;2.40;;
37199;SDS011;23096;50.892;16.746;2023-07-09T00:55:17;3.10;;;2.50;;
37199;SDS011;23096;50.892;16.746;2023-07-09T00:57:48;4.60;;;2.40;;
37199;SDS011;23096;50.892;16.746;2023-07-09T01:00:21;5.20;;;2.30;;
37199;SDS011;23096;50.892;16.746;2023-07-09T01:02:53;4.50;;;2.50;;
37199;SDS011;23096;50.892;16.746;2023-07-09T01:05:18;3.10;;;2.30;;
37199;SDS011;23096;50.892;16.746;2023-07-09T01:07:45;2.90;;;2.40;;
37199;SDS011;23096;50.892;16.746;2023-07-09T01:10:14;2.50;;;2.30;;
37199;SDS011;23096;50.892;16.746;2023-07-09T01:12:41;3.30;;;2.30;;
37199;SDS011;23096;50.892;16.746;2023-07-09T01:15:09;2.60;;;2.30;;
37199;SDS011;23096;50.892;16.746;2023-07-09T01:17:36;3.00;;;2.10;;
37199;SDS011;23096;50.892;16.746;2023-07-09T01:20:02;3.00;;;2.00;;
37199;SDS011;23096;50.892;16.746;2023-07-09T01:22:28;7.70;;;2.70;;
37199;SDS011;23096;50.892;16.746;2023-07-09T01:24:56;3.30;;;2.10;;
37199;SDS011;23096;50.892;16.746;2023-07-09T01:27:37;2.70;;;2.00;;
37199;SDS011;23096;50.892;16.746;2023-07-09T01:30:19;3.90;;;2.30;;
37199;SDS011;23096;50.892;16.746;2023-07-09T01:32:55;5.70;;;2.40;;
37199;SDS011;23096;50.892;16.746;2023-07-09T01:35:22;3.90;;;2.50;;
37199;SDS011;23096;50.892;16.746;2023-07-09T01:37:48;2.40;;;2.00;;
37199;SDS011;23096;50.892;16.746;2023-07-09T01:40:15;2.80;;;2.20;;
37199;SDS011;23096;50.892;16.746;2023-07-09T01:42:43;2.20;;;1.90;;
37199;SDS011;23096;50.892;16.746;2023-07-09T01:45:09;3.60;;;2.60;;
37199;SDS011;23096;50.892;16.746;2023-07-09T01:47:36;2.50;;;2.30;;
37199;SDS011;23096;50.892;16.746;2023-07-09T01:50:03;2.90;;;2.30;;
37199;SDS011;23096;50.892;16.746;2023-07-09T01:52:30;8.70;;;5.00;;
37199;SDS011;23096;50.892;16.746;2023-07-09T01:54:58;5.80;;;4.40;;
37199;SDS011;23096;50.892;16.746;2023-07-09T01:57:27;5.20;;;3.80;;
37199;SDS011;23096;50.892;16.746;2023-07-09T02:00:01;5.00;;;3.60;;
37199;SDS011;23096;50.892;16.746;2023-07-09T02:02:39;4.40;;;3.20;;
37199;SDS011;23096;50.892;16.746;2023-07-09T02:05:10;4.70;;;3.50;;
37199;SDS011;23096;50.892;16.746;2023-07-09T02:07:38;3.90;;;3.20;;
37199;SDS011;23096;50.892;16.746;2023-07-09T02:10:04;5.70;;;3.80;;
37199;SDS011;23096;50.892;16.746;2023-07-09T02:12:31;5.60;;;2.80;;
37199;SDS011;23096;50.892;16.746;2023-07-09T02:14:56;5.40;;;3.90;;
37199;SDS011;23096;50.892;16.746;2023-07-09T02:17:23;4.80;;;3.50;;
37199;SDS011;23096;50.892;16.746;2023-07-09T02:19:50;4.10;;;3.10;;
37199;SDS011;23096;50.892;16.746;2023-07-09T02:22:16;3.10;;;2.80;;
37199;SDS011;23096;50.892;16.746;2023-07-09T02:24:41;8.40;;;3.10;;
37199;SDS011;23096;50.892;16.746;2023-07-09T02:27:08;5.60;;;3.20;;
37199;SDS011;23096;50.892;16.746;2023-07-09T02:29:35;3.80;;;3.20;;
37199;SDS011;23096;50.892;16.746;2023-07-09T02:32:03;6.40;;;3.60;;
37199;SDS011;23096;50.892;16.746;2023-07-09T02:34:29;4.40;;;2.70;;
37199;SDS011;23096;50.892;16.746;2023-07-09T02:36:56;3.70;;;3.30;;
37199;SDS011;23096;50.892;16.746;2023-07-09T02:39:24;5.00;;;3.20;;
37199;SDS011;23096;50.892;16.746;2023-07-09T02:41:51;4.90;;;2.90;;
37199;SDS011;23096;50.892;16.746;2023-07-09T02:44:17;4.50;;;2.70;;
37199;SDS011;23096;50.892;16.746;2023-07-09T02:46:43;4.30;;;3.40;;
37199;SDS011;23096;50.892;16.746;2023-07-09T02:49:11;5.90;;;3.80;;
37199;SDS011;23096;50.892;16.746;2023-07-09T02:51:37;5.50;;;3.20;;
37199;SDS011;23096;50.892;16.746;2023-07-09T02:54:03;3.80;;;3.10;;
37199;SDS011;23096;50.892;16.746;2023-07-09T02:56:30;3.40;;;3.10;;
37199;SDS011;23096;50.892;16.746;2023-07-09T02:58:55;3.20;;;2.90;;
37199;SDS011;23096;50.892;16.746;2023-07-09T03:01:21;4.50;;;3.40;;
37199;SDS011;23096;50.892;16.746;2023-07-09T03:03:56;4.00;;;3.50;;
37199;SDS011;23096;50.892;16.746;2023-07-09T03:06:24;5.00;;;3.50;;
37199;SDS011;23096;50.892;16.746;2023-07-09T03:08:51;3.30;;;2.80;;
37199;SDS011;23096;50.892;16.746;2023-07-09T03:11:17;4.00;;;3.30;;
37199;SDS011;23096;50.892;16.746;2023-07-09T03:13:43;6.40;;;3.60;;
37199;SDS011;23096;50.892;16.746;2023-07-09T03:16:09;4.30;;;3.10;;
37199;SDS011;23096;50.892;16.746;2023-07-09T03:18:35;2.90;;;2.50;;
37199;SDS011;23096;50.892;16.746;2023-07-09T03:21:00;4.00;;;2.50;;
37199;SDS011;23096;50.892;16.746;2023-07-09T03:23:26;4.50;;;3.30;;
37199;SDS011;23096;50.892;16.746;2023-07-09T03:25:52;4.80;;;3.20;;
37199;SDS011;23096;50.892;16.746;2023-07-09T03:28:19;6.50;;;3.60;;
37199;SDS011;23096;50.892;16.746;2023-07-09T03:30:45;5.50;;;4.30;;
37199;SDS011;23096;50.892;16.746;2023-07-09T03:33:14;7.20;;;4.10;;
37199;SDS011;23096;50.892;16.746;2023-07-09T03:35:41;8.00;;;5.60;;
37199;SDS011;23096;50.892;16.746;2023-07-09T03:38:08;8.50;;;5.90;;
37199;SDS011;23096;50.892;16.746;2023-07-09T03:40:35;6.20;;;5.40;;
37199;SDS011;23096;50.892;16.746;2023-07-09T03:43:02;7.20;;;5.50;;
37199;SDS011;23096;50.892;16.746;2023-07-09T03:45:27;7.10;;;5.10;;
37199;SDS011;23096;50.892;16.746;2023-07-09T03:47:53;6.50;;;4.50;;
37199;SDS011;23096;50.892;16.746;2023-07-09T03:50:18;5.30;;;4.40;;
37199;SDS011;23096;50.892;16.746;2023-07-09T03:52:44;7.50;;;5.10;;
37199;SDS011;23096;50.892;16.746;2023-07-09T03:55:10;9.50;;;4.70;;
37199;SDS011;23096;50.892;16.746;2023-07-09T03:57:35;6.70;;;5.00;;
37199;SDS011;23096;50.892;16.746;2023-07-09T04:00:04;5.40;;;4.70;;
37199;SDS011;23096;50.892;16.746;2023-07-09T04:02:40;6.20;;;4.50;;
37199;SDS011;23096;50.892;16.746;2023-07-09T04:05:09;7.00;;;4.40;;
37199;SDS011;23096;50.892;16.746;2023-07-09T04:07:35;5.00;;;4.30;;
37199;SDS011;23096;50.892;16.746;2023-07-09T04:10:00;5.90;;;4.00;;
37199;SDS011;23096;50.892;16.746;2023-07-09T04:12:26;8.00;;;4.80;;
37199;SDS011;23096;50.892;16.746;2023-07-09T04:14:52;5.00;;;4.30;;
37199;SDS011;23096;50.892;16.746;2023-07-09T04:17:18;6.00;;;5.00;;
37199;SDS011;23096;50.892;16.746;2023-07-09T04:19:44;4.80;;;4.10;;
37199;SDS011;23096;50.892;16.746;2023-07-09T04:22:10;7.10;;;4.60;;
37199;SDS011;23096;50.892;16.746;2023-07-09T04:24:36;6.30;;;5.10;;
37199;SDS011;23096;50.892;16.746;2023-07-09T04:27:02;5.00;;;4.00;;
37199;SDS011;23096;50.892;16.746;2023-07-09T04:29:31;4.50;;;3.60;;
37199;SDS011;23096;50.892;16.746;2023-07-09T04:32:07;8.30;;;4.50;;
37199;SDS011;23096;50.892;16.746;2023-07-09T04:34:38;6.80;;;4.20;;
37199;SDS011;23096;50.892;16.746;2023-07-09T04:37:07;4.90;;;4.00;;
37199;SDS011;23096;50.892;16.746;2023-07-09T04:39:34;4.80;;;3.50;;
37199;SDS011;23096;50.892;16.746;2023-07-09T04:42:00;5.50;;;4.30;;
37199;SDS011;23096;50.892;16.746;2023-07-09T04:44:26;4.00;;;3.10;;
37199;SDS011;23096;50.892;16.746;2023-07-09T04:46:52;5.30;;;3.80;;
37199;SDS011;23096;50.892;16.746;2023-07-09T04:49:18;6.30;;;3.70;;
37199;SDS011;23096;50.892;16.746;2023-07-09T04:51:43;6.10;;;4.20;;
37199;SDS011;23096;50.892;16.746;2023-07-09T04:54:09;8.10;;;4.40;;
37199;SDS011;23096;50.892;16.746;2023-07-09T04:56:34;6.50;;;4.40;;
37199;SDS011;23096;50.892;16.746;2023-07-09T04:59:01;5.60;;;4.00;;
37199;SDS011;23096;50.892;16.746;2023-07-09T05:01:27;6.50;;;4.60;;
37199;SDS011;23096;50.892;16.746;2023-07-09T05:03:54;6.90;;;4.50;;
37199;SDS011;23096;50.892;16.746;2023-07-09T05:06:20;4.90;;;3.40;;
37199;SDS011;23096;50.892;16.746;2023-07-09T05:08:47;4.10;;;3.30;;
37199;SDS011;23096;50.892;16.746;2023-07-09T05:11:13;6.60;;;3.10;;
37199;SDS011;23096;50.892;16.746;2023-07-09T05:13:39;4.70;;;3.30;;
37199;SDS011;23096;50.892;16.746;2023-07-09T05:16:05;4.80;;;3.70;;
37199;SDS011;23096;50.892;16.746;2023-07-09T05:18:31;3.90;;;2.90;;
37199;SDS011;23096;50.892;16.746;2023-07-09T05:20:56;4.30;;;3.40;;
37199;SDS011;23096;50.892;16.746;2023-07-09T05:23:23;3.50;;;3.00;;
37199;SDS011;23096;50.892;16.746;2023-07-09T05:25:55;3.80;;;2.70;;
37199;SDS011;23096;50.892;16.746;2023-07-09T05:28:21;3.40;;;2.70;;
37199;SDS011;23096;50.892;16.746;2023-07-09T05:30:47;4.80;;;3.10;;
37199;SDS011;23096;50.892;16.746;2023-07-09T05:33:12;3.00;;;2.40;;
37199;SDS011;23096;50.892;16.746;2023-07-09T05:35:38;3.40;;;3.10;;
37199;SDS011;23096;50.892;16.746;2023-07-09T05:38:03;3.80;;;3.00;;
37199;SDS011;23096;50.892;16.746;2023-07-09T05:40:29;3.70;;;3.20;;
37199;SDS011;23096;50.892;16.746;2023-07-09T05:42:55;4.30;;;2.90;;
37199;SDS011;23096;50.892;16.746;2023-07-09T05:45:20;5.70;;;3.60;;
37199;SDS011;23096;50.892;16.746;2023-07-09T05:47:46;4.70;;;2.80;;
37199;SDS011;23096;50.892;16.746;2023-07-09T05:50:11;4.50;;;2.80;;
37199;SDS011;23096;50.892;16.746;2023-07-09T05:52:37;5.10;;;2.90;;
37199;SDS011;23096;50.892;16.746;2023-07-09T05:55:03;4.80;;;3.10;;
37199;SDS011;23096;50.892;16.746;2023-07-09T05:57:28;4.20;;;3.00;;
37199;SDS011;23096;50.892;16.746;2023-07-09T05:59:54;6.70;;;3.80;;
37199;SDS011;23096;50.892;16.746;2023-07-09T06:02:20;4.30;;;3.10;;
37199;SDS011;23096;50.892;16.746;2023-07-09T06:04:46;3.00;;;2.70;;
37199;SDS011;23096;50.892;16.746;2023-07-09T06:07:15;3.50;;;2.70;;
37199;SDS011;23096;50.892;16.746;2023-07-09T06:09:43;4.60;;;2.90;;
37199;SDS011;23096;50.892;16.746;2023-07-09T06:12:08;3.40;;;2.80;;
37199;SDS011;23096;50.892;16.746;2023-07-09T06:14:34;6.00;;;3.10;;
37199;SDS011;23096;50.892;16.746;2023-07-09T06:17:00;4.00;;;3.10;;
37199;SDS011;23096;50.892;16.746;2023-07-09T06:19:26;6.60;;;3.20;;
37199;SDS011;23096;50.892;16.746;2023-07-09T06:21:52;5.40;;;3.00;;
37199;SDS011;23096;50.892;16.746;2023-07-09T06:24:18;3.90;;;2.90;;
37199;SDS011;23096;50.892;16.746;2023-07-09T06:26:43;3.80;;;2.90;;
37199;SDS011;23096;50.892;16.746;2023-07-09T06:29:09;3.50;;;3.20;;
37199;SDS011;23096;50.892;16.746;2023-07-09T06:31:35;3.50;;;2.60;;
37199;SDS011;23096;50.892;16.746;2023-07-09T06:34:02;4.50;;;2.70;;
37199;SDS011;23096;50.892;16.746;2023-07-09T06:36:29;5.00;;;3.20;;
37199;SDS011;23096;50.892;16.746;2023-07-09T06:38:54;9.20;;;3.40;;
37199;SDS011;23096;50.892;16.746;2023-07-09T06:41:20;4.10;;;3.30;;
37199;SDS011;23096;50.892;16.746;2023-07-09T06:43:46;3.40;;;2.50;;
37199;SDS011;23096;50.892;16.746;2023-07-09T06:46:12;3.90;;;2.90;;
37199;SDS011;23096;50.892;16.746;2023-07-09T06:48:39;5.50;;;3.30;;
37199;SDS011;23096;50.892;16.746;2023-07-09T06:51:04;6.10;;;3.50;;
37199;SDS011;23096;50.892;16.746;2023-07-09T06:53:30;4.40;;;3.40;;
37199;SDS011;23096;50.892;16.746;2023-07-09T06:55:56;4.90;;;3.40;;
37199;SDS011;23096;50.892;16.746;2023-07-09T06:58:25;3.30;;;2.90;;
37199;SDS011;23096;50.892;16.746;2023-07-09T07:00:53;3.70;;;3.00;;
37199;SDS011;23096;50.892;16.746;2023-07-09T07:03:20;3.90;;;3.30;;
37199;SDS011;23096;50.892;16.746;2023-07-09T07:05:49;5.20;;;3.40;;
37199;SDS011;23096;50.892;16.746;2023-07-09T07:08:17;3.70;;;3.20;;
37199;SDS011;23096;50.892;16.746;2023-07-09T07:10:47;4.30;;;3.50;;
37199;SDS011;23096;50.892;16.746;2023-07-09T07:13:14;7.00;;;3.80;;
37199;SDS011;23096;50.892;16.746;2023-07-09T07:15:39;4.00;;;3.40;;
37199;SDS011;23096;50.892;16.746;2023-07-09T07:18:06;5.70;;;3.30;;
37199;SDS011;23096;50.892;16.746;2023-07-09T07:20:32;5.40;;;4.00;;
37199;SDS011;23096;50.892;16.746;2023-07-09T07:22:58;8.40;;;3.30;;
37199;SDS011;23096;50.892;16.746;2023-07-09T07:25:24;6.10;;;4.10;;
37199;SDS011;23096;50.892;16.746;2023-07-09T07:27:50;7.70;;;3.80;;
37199;SDS011;23096;50.892;16.746;2023-07-09T07:30:16;5.00;;;3.70;;
37199;SDS011;23096;50.892;16.746;2023-07-09T07:32:43;4.60;;;3.90;;
37199;SDS011;23096;50.892;16.746;2023-07-09T07:35:11;6.30;;;3.40;;
37199;SDS011;23096;50.892;16.746;2023-07-09T07:37:38;6.40;;;3.90;;
37199;SDS011;23096;50.892;16.746;2023-07-09T07:40:04;5.70;;;3.50;;
37199;SDS011;23096;50.892;16.746;2023-07-09T07:42:31;6.60;;;3.30;;
37199;SDS011;23096;50.892;16.746;2023-07-09T07:44:56;3.50;;;3.00;;
37199;SDS011;23096;50.892;16.746;2023-07-09T07:47:22;5.30;;;3.70;;
37199;SDS011;23096;50.892;16.746;2023-07-09T07:49:47;5.80;;;3.60;;
37199;SDS011;23096;50.892;16.746;2023-07-09T07:52:13;5.50;;;3.90;;
37199;SDS011;23096;50.892;16.746;2023-07-09T07:54:39;6.80;;;3.80;;
37199;SDS011;23096;50.892;16.746;2023-07-09T07:57:04;4.60;;;3.60;;
37199;SDS011;23096;50.892;16.746;2023-07-09T07:59:30;6.40;;;3.10;;
37199;SDS011;23096;50.892;16.746;2023-07-09T08:02:00;10.10;;;3.60;;
37199;SDS011;23096;50.892;16.746;2023-07-09T08:04:26;5.00;;;3.50;;
37199;SDS011;23096;50.892;16.746;2023-07-09T08:06:51;4.10;;;3.10;;
37199;SDS011;23096;50.892;16.746;2023-07-09T08:09:17;3.70;;;2.70;;
37199;SDS011;23096;50.892;16.746;2023-07-09T08:11:43;10.00;;;3.30;;
37199;SDS011;23096;50.892;16.746;2023-07-09T08:14:09;7.80;;;3.20;;
37199;SDS011;23096;50.892;16.746;2023-07-09T08:16:35;4.50;;;3.10;;
37199;SDS011;23096;50.892;16.746;2023-07-09T08:19:01;4.40;;;3.20;;
37199;SDS011;23096;50.892;16.746;2023-07-09T08:21:26;5.40;;;3.20;;
37199;SDS011;23096;50.892;16.746;2023-07-09T08:23:52;4.40;;;3.10;;
37199;SDS011;23096;50.892;16.746;2023-07-09T08:26:18;4.70;;;3.40;;
37199;SDS011;23096;50.892;16.746;2023-07-09T08:28:43;8.10;;;3.40;;
37199;SDS011;23096;50.892;16.746;2023-07-09T08:31:09;4.40;;;3.30;;
37199;SDS011;23096;50.892;16.746;2023-07-09T08:33:35;5.90;;;3.30;;
37199;SDS011;23096;50.892;16.746;2023-07-09T08:36:01;7.00;;;3.30;;
37199;SDS011;23096;50.892;16.746;2023-07-09T08:38:27;6.10;;;3.20;;
37199;SDS011;23096;50.892;16.746;2023-07-09T08:40:57;5.70;;;3.30;;
37199;SDS011;23096;50.892;16.746;2023-07-09T08:45:58;8.20;;;3.40;;
37199;SDS011;23096;50.892;16.746;2023-07-09T08:48:41;4.80;;;3.20;;
37199;SDS011;23096;50.892;16.746;2023-07-09T08:51:26;4.50;;;3.20;;
37199;SDS011;23096;50.892;16.746;2023-07-09T08:53:59;4.00;;;2.90;;
37199;SDS011;23096;50.892;16.746;2023-07-09T08:56:26;4.60;;;3.10;;
37199;SDS011;23096;50.892;16.746;2023-07-09T08:58:56;5.40;;;3.20;;
37199;SDS011;23096;50.892;16.746;2023-07-09T09:01:27;5.00;;;3.50;;
37199;SDS011;23096;50.892;16.746;2023-07-09T09:04:03;4.90;;;3.50;;
37199;SDS011;23096;50.892;16.746;2023-07-09T09:06:38;8.00;;;3.40;;
37199;SDS011;23096;50.892;16.746;2023-07-09T09:12:18;5.20;;;3.20;;
37199;SDS011;23096;50.892;16.746;2023-07-09T09:14:51;4.20;;;3.60;;
37199;SDS011;23096;50.892;16.746;2023-07-09T09:17:23;5.40;;;3.30;;
37199;SDS011;23096;50.892;16.746;2023-07-09T09:23:12;7.60;;;3.20;;
37199;SDS011;23096;50.892;16.746;2023-07-09T09:25:39;5.80;;;4.00;;
37199;SDS011;23096;50.892;16.746;2023-07-09T09:28:08;3.40;;;3.10;;
37199;SDS011;23096;50.892;16.746;2023-07-09T09:30:33;7.60;;;3.70;;
37199;SDS011;23096;50.892;16.746;2023-07-09T09:33:00;5.20;;;3.80;;
37199;SDS011;23096;50.892;16.746;2023-07-09T09:35:28;4.80;;;3.70;;
37199;SDS011;23096;50.892;16.746;2023-07-09T09:37:59;4.30;;;3.60;;
37199;SDS011;23096;50.892;16.746;2023-07-09T09:40:26;4.40;;;3.30;;
37199;SDS011;23096;50.892;16.746;2023-07-09T09:42:54;5.80;;;3.80;;
37199;SDS011;23096;50.892;16.746;2023-07-09T09:45:25;4.80;;;3.70;;
37199;SDS011;23096;50.892;16.746;2023-07-09T09:48:20;4.40;;;3.70;;
37199;SDS011;23096;50.892;16.746;2023-07-09T09:50:53;5.00;;;3.60;;
37199;SDS011;23096;50.892;16.746;2023-07-09T09:53:21;3.60;;;3.30;;
37199;SDS011;23096;50.892;16.746;2023-07-09T09:55:50;6.00;;;4.00;;
37199;SDS011;23096;50.892;16.746;2023-07-09T09:58:20;5.10;;;3.30;;
37199;SDS011;23096;50.892;16.746;2023-07-09T10:00:50;5.40;;;3.20;;
37199;SDS011;23096;50.892;16.746;2023-07-09T10:03:17;8.50;;;3.50;;
37199;SDS011;23096;50.892;16.746;2023-07-09T10:05:44;3.90;;;3.00;;
37199;SDS011;23096;50.892;16.746;2023-07-09T10:11:08;6.10;;;3.10;;
37199;SDS011;23096;50.892;16.746;2023-07-09T10:13:43;4.30;;;3.30;;
37199;SDS011;23096;50.892;16.746;2023-07-09T10:18:53;3.90;;;3.20;;
37199;SDS011;23096;50.892;16.746;2023-07-09T10:21:30;3.80;;;3.40;;
37199;SDS011;23096;50.892;16.746;2023-07-09T10:30:15;6.20;;;3.10;;
37199;SDS011;23096;50.892;16.746;2023-07-09T10:35:53;4.30;;;3.40;;
37199;SDS011;23096;50.892;16.746;2023-07-09T10:38:32;4.20;;;3.20;;
37199;SDS011;23096;50.892;16.746;2023-07-09T10:41:07;3.30;;;3.00;;
37199;SDS011;23096;50.892;16.746;2023-07-09T10:43:50;4.00;;;3.20;;
37199;SDS011;23096;50.892;16.746;2023-07-09T10:46:26;5.20;;;3.30;;
37199;SDS011;23096;50.892;16.746;2023-07-09T10:48:56;4.10;;;3.30;;
37199;SDS011;23096;50.892;16.746;2023-07-09T10:53:58;3.30;;;3.00;;
37199;SDS011;23096;50.892;16.746;2023-07-09T10:56:47;4.60;;;2.80;;
37199;SDS011;23096;50.892;16.746;2023-07-09T10:59:28;4.20;;;3.10;;
37199;SDS011;23096;50.892;16.746;2023-07-09T11:04:47;3.40;;;3.10;;
37199;SDS011;23096;50.892;16.746;2023-07-09T11:12:37;3.90;;;3.40;;
37199;SDS011;23096;50.892;16.746;2023-07-09T11:15:12;6.10;;;3.40;;
37199;SDS011;23096;50.892;16.746;2023-07-09T11:17:43;5.70;;;3.10;;
37199;SDS011;23096;50.892;16.746;2023-07-09T11:22:53;4.40;;;3.30;;
37199;SDS011;23096;50.892;16.746;2023-07-09T11:25:27;3.60;;;3.10;;
37199;SDS011;23096;50.892;16.746;2023-07-09T11:28:06;4.30;;;3.10;;
37199;SDS011;23096;50.892;16.746;2023-07-09T11:30:32;5.10;;;2.70;;
37199;SDS011;23096;50.892;16.746;2023-07-09T11:35:27;3.30;;;3.00;;
37199;SDS011;23096;50.892;16.746;2023-07-09T11:38:23;3.50;;;3.10;;
37199;SDS011;23096;50.892;16.746;2023-07-09T11:40:50;5.20;;;3.60;;
37199;SDS011;23096;50.892;16.746;2023-07-09T11:43:29;3.70;;;2.90;;
37199;SDS011;23096;50.892;16.746;2023-07-09T11:46:00;4.90;;;3.20;;
37199;SDS011;23096;50.892;16.746;2023-07-09T11:48:36;4.10;;;3.10;;
37199;SDS011;23096;50.892;16.746;2023-07-09T11:51:08;3.20;;;2.90;;
37199;SDS011;23096;50.892;16.746;2023-07-09T11:53:52;4.30;;;3.10;;
37199;SDS011;23096;50.892;16.746;2023-07-09T11:56:20;5.20;;;3.10;;
37199;SDS011;23096;50.892;16.746;2023-07-09T11:58:48;4.00;;;3.40;;
37199;SDS011;23096;50.892;16.746;2023-07-09T12:01:16;3.20;;;2.90;;
37199;SDS011;23096;50.892;16.746;2023-07-09T12:03:45;4.30;;;3.20;;
37199;SDS011;23096;50.892;16.746;2023-07-09T12:06:17;5.80;;;3.10;;
37199;SDS011;23096;50.892;16.746;2023-07-09T12:08:48;4.50;;;3.40;;
37199;SDS011;23096;50.892;16.746;2023-07-09T12:11:19;4.00;;;3.40;;
37199;SDS011;23096;50.892;16.746;2023-07-09T12:13:45;3.90;;;3.10;;
37199;SDS011;23096;50.892;16.746;2023-07-09T12:16:21;26.90;;;4.40;;
37199;SDS011;23096;50.892;16.746;2023-07-09T12:18:50;5.30;;;3.50;;
37199;SDS011;23096;50.892;16.746;2023-07-09T12:21:16;6.50;;;3.50;;
37199;SDS011;23096;50.892;16.746;2023-07-09T12:23:43;3.40;;;3.10;;
37199;SDS011;23096;50.892;16.746;2023-07-09T12:26:16;3.80;;;3.40;;
37199;SDS011;23096;50.892;16.746;2023-07-09T12:28:49;7.50;;;3.60;;
37199;SDS011;23096;50.892;16.746;2023-07-09T12:31:16;4.00;;;2.80;;
37199;SDS011;23096;50.892;16.746;2023-07-09T12:33:49;5.30;;;3.00;;
37199;SDS011;23096;50.892;16.746;2023-07-09T12:36:16;6.80;;;4.10;;
37199;SDS011;23096;50.892;16.746;2023-07-09T12:38:44;3.80;;;3.20;;
37199;SDS011;23096;50.892;16.746;2023-07-09T12:41:19;3.40;;;2.90;;
37199;SDS011;23096;50.892;16.746;2023-07-09T12:43:48;3.90;;;3.40;;
37199;SDS011;23096;50.892;16.746;2023-07-09T12:46:14;4.40;;;3.30;;
37199;SDS011;23096;50.892;16.746;2023-07-09T12:48:41;5.50;;;3.40;;
37199;SDS011;23096;50.892;16.746;2023-07-09T12:51:07;6.00;;;3.30;;
37199;SDS011;23096;50.892;16.746;2023-07-09T12:53:33;5.40;;;2.90;;
37199;SDS011;23096;50.892;16.746;2023-07-09T12:56:01;4.00;;;3.50;;
37199;SDS011;23096;50.892;16.746;2023-07-09T12:58:31;4.40;;;3.10;;
37199;SDS011;23096;50.892;16.746;2023-07-09T13:00:59;4.90;;;3.00;;
37199;SDS011;23096;50.892;16.746;2023-07-09T13:03:31;4.40;;;3.70;;
37199;SDS011;23096;50.892;16.746;2023-07-09T13:06:02;4.80;;;3.00;;
37199;SDS011;23096;50.892;16.746;2023-07-09T13:08:30;5.70;;;3.50;;
37199;SDS011;23096;50.892;16.746;2023-07-09T13:10:57;5.80;;;3.10;;
37199;SDS011;23096;50.892;16.746;2023-07-09T13:13:25;4.40;;;3.60;;
37199;SDS011;23096;50.892;16.746;2023-07-09T13:15:52;5.30;;;3.60;;
37199;SDS011;23096;50.892;16.746;2023-07-09T13:18:26;6.30;;;3.10;;
37199;SDS011;23096;50.892;16.746;2023-07-09T13:20:54;6.00;;;3.70;;
37199;SDS011;23096;50.892;16.746;2023-07-09T13:23:27;7.40;;;3.70;;
37199;SDS011;23096;50.892;16.746;2023-07-09T13:25:55;4.10;;;3.30;;
37199;SDS011;23096;50.892;16.746;2023-07-09T13:30:59;4.40;;;3.60;;
37199;SDS011;23096;50.892;16.746;2023-07-09T13:33:33;3.70;;;3.30;;
37199;SDS011;23096;50.892;16.746;2023-07-09T13:35:59;3.90;;;3.40;;
37199;SDS011;23096;50.892;16.746;2023-07-09T13:38:24;6.00;;;3.60;;
37199;SDS011;23096;50.892;16.746;2023-07-09T13:40:52;7.90;;;4.00;;
37199;SDS011;23096;50.892;16.746;2023-07-09T13:43:33;7.30;;;3.60;;
37199;SDS011;23096;50.892;16.746;2023-07-09T13:46:01;3.80;;;3.40;;
37199;SDS011;23096;50.892;16.746;2023-07-09T13:48:29;4.10;;;3.70;;
37199;SDS011;23096;50.892;16.746;2023-07-09T13:50:57;4.50;;;3.50;;
37199;SDS011;23096;50.892;16.746;2023-07-09T13:53:24;6.40;;;4.00;;
37199;SDS011;23096;50.892;16.746;2023-07-09T13:55:54;5.80;;;3.40;;
37199;SDS011;23096;50.892;16.746;2023-07-09T13:58:21;4.30;;;3.60;;
37199;SDS011;23096;50.892;16.746;2023-07-09T14:00:50;5.20;;;3.40;;
37199;SDS011;23096;50.892;16.746;2023-07-09T14:03:21;5.60;;;3.40;;
37199;SDS011;23096;50.892;16.746;2023-07-09T14:05:49;6.60;;;3.40;;
37199;SDS011;23096;50.892;16.746;2023-07-09T14:08:15;4.50;;;3.50;;
37199;SDS011;23096;50.892;16.746;2023-07-09T14:10:42;5.40;;;3.20;;
37199;SDS011;23096;50.892;16.746;2023-07-09T14:13:10;6.00;;;3.70;;
37199;SDS011;23096;50.892;16.746;2023-07-09T14:15:39;5.70;;;3.60;;
37199;SDS011;23096;50.892;16.746;2023-07-09T14:18:13;4.60;;;3.60;;
37199;SDS011;23096;50.892;16.746;2023-07-09T14:20:41;4.00;;;3.10;;
37199;SDS011;23096;50.892;16.746;2023-07-09T14:23:11;5.90;;;3.60;;
37199;SDS011;23096;50.892;16.746;2023-07-09T14:25:38;6.40;;;4.00;;
37199;SDS011;23096;50.892;16.746;2023-07-09T14:28:08;4.20;;;3.60;;
37199;SDS011;23096;50.892;16.746;2023-07-09T14:30:36;7.40;;;3.50;;
37199;SDS011;23096;50.892;16.746;2023-07-09T14:33:02;4.20;;;3.80;;
37199;SDS011;23096;50.892;16.746;2023-07-09T14:35:28;3.60;;;3.20;;
37199;SDS011;23096;50.892;16.746;2023-07-09T14:37:54;4.60;;;3.50;;
37199;SDS011;23096;50.892;16.746;2023-07-09T14:40:20;9.90;;;4.00;;
37199;SDS011;23096;50.892;16.746;2023-07-09T14:42:50;5.10;;;3.70;;
37199;SDS011;23096;50.892;16.746;2023-07-09T14:45:20;6.20;;;3.60;;
37199;SDS011;23096;50.892;16.746;2023-07-09T14:47:51;5.70;;;3.30;;
37199;SDS011;23096;50.892;16.746;2023-07-09T14:50:19;5.40;;;3.40;;
37199;SDS011;23096;50.892;16.746;2023-07-09T14:52:47;5.60;;;3.80;;
37199;SDS011;23096;50.892;16.746;2023-07-09T14:55:13;5.40;;;3.60;;
37199;SDS011;23096;50.892;16.746;2023-07-09T14:57:40;4.90;;;3.60;;
37199;SDS011;23096;50.892;16.746;2023-07-09T15:00:06;5.80;;;3.90;;
37199;SDS011;23096;50.892;16.746;2023-07-09T15:02:34;5.70;;;4.00;;
37199;SDS011;23096;50.892;16.746;2023-07-09T15:05:06;8.30;;;4.20;;
37199;SDS011;23096;50.892;16.746;2023-07-09T15:07:37;6.30;;;3.40;;
37199;SDS011;23096;50.892;16.746;2023-07-09T15:10:03;5.50;;;3.40;;
37199;SDS011;23096;50.892;16.746;2023-07-09T15:12:33;4.50;;;3.80;;
37199;SDS011;23096;50.892;16.746;2023-07-09T15:15:12;4.10;;;2.90;;
37199;SDS011;23096;50.892;16.746;2023-07-09T15:17:42;3.40;;;3.10;;
37199;SDS011;23096;50.892;16.746;2023-07-09T15:20:12;5.60;;;4.10;;
37199;SDS011;23096;50.892;16.746;2023-07-09T15:22:41;6.00;;;4.10;;
37199;SDS011;23096;50.892;16.746;2023-07-09T15:25:10;4.50;;;4.10;;